Time;durP1;ratioP1;P1;durP2;ratioP2;P2;SDS_P1;SDS_P2;PMS_P1;PMS_P2;Temp;Humidity;BMP_temperature;BMP_pressure;BME280_temperature;BME280_humidity;BME280_pressure;Samples;Min_cycle;Max_cycle;Signal;HPM_P1;HPM_P2
2022/12/24 00:01:21;;;;;;;23.17;15.65;;;6.80;99.90;;;;;;4986651;28;20536;-72
2022/12/24 00:03:47;;;;;;;23.13;16.10;;;6.90;99.90;;;;;;4990802;28;21029;-75
2022/12/24 00:06:19;;;;;;;24.98;16.27;;;7.00;99.90;;;;;;4986337;28;20801;-74
2022/12/24 00:08:45;;;;;;;23.48;15.60;;;7.00;99.90;;;;;;5004110;28;20443;-76
2022/12/24 00:11:11;;;;;;;25.90;16.35;;;7.20;99.90;;;;;;4984648;28;20416;-75
2022/12/24 00:13:36;;;;;;;24.88;16.17;;;7.00;99.90;;;;;;4998035;28;20493;-75
2022/12/24 00:16:03;;;;;;;24.30;16.13;;;7.20;99.90;;;;;;5008113;28;20879;-75
2022/12/24 00:18:28;;;;;;;25.50;16.80;;;6.90;99.90;;;;;;4985154;28;20466;-75
2022/12/24 00:20:54;;;;;;;25.13;16.30;;;6.90;99.90;;;;;;5005299;28;20855;-77
2022/12/24 00:23:20;;;;;;;25.60;16.67;;;7.00;99.90;;;;;;5005259;28;20428;-74
2022/12/24 00:25:54;;;;;;;31.38;18.00;;;7.30;99.90;;;;;;5011078;28;20442;-74
2022/12/24 00:28:25;;;;;;;28.27;17.33;;;7.30;99.90;;;;;;5015273;28;20976;-76
2022/12/24 00:30:50;;;;;;;33.90;19.25;;;7.30;99.90;;;;;;4988199;28;20477;-75
2022/12/24 00:33:54;;;;;;;28.30;17.30;;;7.20;99.90;;;;;;5101012;22;20943;-78
2022/12/24 00:36:20;;;;;;;26.35;16.90;;;7.10;99.90;;;;;;4989619;28;20447;-77
2022/12/24 00:38:46;;;;;;;29.13;18.88;;;7.20;99.90;;;;;;4993303;28;20835;-75
2022/12/24 00:41:27;;;;;;;22.85;16.50;;;7.20;99.90;;;;;;4989762;28;20459;-77
2022/12/24 00:43:55;;;;;;;22.38;16.02;;;7.30;99.90;;;;;;4976691;28;20940;-77
2022/12/24 00:46:22;;;;;;;25.17;17.00;;;7.30;99.90;;;;;;4979789;28;20492;-77
2022/12/24 00:48:48;;;;;;;24.55;16.77;;;7.30;99.90;;;;;;4981700;28;20433;-77
2022/12/24 00:51:14;;;;;;;27.08;16.70;;;7.20;99.90;;;;;;4988269;28;20493;-77
2022/12/24 00:53:40;;;;;;;25.48;16.92;;;7.30;99.90;;;;;;5010205;28;20506;-76
2022/12/24 00:56:06;;;;;;;25.42;16.52;;;7.00;99.90;;;;;;5006178;28;20413;-76
2022/12/24 00:58:32;;;;;;;26.55;17.35;;;7.00;99.90;;;;;;5007828;28;20440;-77
2022/12/24 01:00:58;;;;;;;27.92;17.30;;;7.20;99.90;;;;;;4990835;28;20428;-77
2022/12/24 01:03:34;;;;;;;25.92;17.00;;;6.90;99.90;;;;;;4993915;28;20426;-78
2022/12/24 01:06:03;;;;;;;29.25;17.58;;;6.90;99.90;;;;;;5003436;28;20498;-76
2022/12/24 01:08:29;;;;;;;26.85;17.52;;;7.00;99.90;;;;;;4983091;28;20781;-77
2022/12/24 01:10:55;;;;;;;31.13;18.17;;;7.30;99.90;;;;;;4965233;28;20436;-78
2022/12/24 01:13:20;;;;;;;30.52;17.17;;;7.20;99.90;;;;;;4997455;28;20509;-78
2022/12/24 01:15:46;;;;;;;25.40;16.55;;;7.50;99.90;;;;;;5006378;28;20421;-76
2022/12/24 01:18:12;;;;;;;29.38;18.23;;;7.40;99.90;;;;;;4988986;28;21016;-77
2022/12/24 01:20:37;;;;;;;27.73;16.85;;;7.10;99.90;;;;;;4988648;28;20413;-76
2022/12/24 01:23:03;;;;;;;28.05;17.70;;;7.20;99.90;;;;;;4988984;28;20536;-76
2022/12/24 01:25:29;;;;;;;29.70;17.52;;;7.50;99.90;;;;;;5006974;28;20936;-75
2022/12/24 01:27:54;;;;;;;27.58;17.17;;;7.50;99.90;;;;;;4989449;28;20507;-76
2022/12/24 01:30:20;;;;;;;27.52;18.23;;;7.50;99.90;;;;;;5006626;28;20938;-77
2022/12/24 01:32:46;;;;;;;35.10;19.97;;;7.10;99.90;;;;;;5006674;28;20432;-76
2022/12/24 01:35:11;;;;;;;24.67;17.33;;;7.20;99.90;;;;;;5001192;28;21094;-76
2022/12/24 01:37:37;;;;;;;35.03;18.23;;;7.40;99.90;;;;;;5002817;28;20476;-77
2022/12/24 01:45:36;;;;;;;31.73;19.95;;;7.30;99.90;;;;;;4987532;28;21049;-77
2022/12/24 01:48:03;;;;;;;32.63;20.10;;;7.00;99.90;;;;;;4973238;28;20525;-76
2022/12/24 01:50:28;;;;;;;30.27;18.30;;;7.20;99.90;;;;;;4987275;28;20497;-75
2022/12/24 01:52:55;;;;;;;34.30;20.17;;;7.40;99.90;;;;;;4957719;28;20537;-76
2022/12/24 01:55:21;;;;;;;34.15;19.40;;;7.40;99.90;;;;;;5006288;28;20511;-78
2022/12/24 01:57:56;;;;;;;37.83;20.27;;;7.10;99.90;;;;;;5006385;28;20436;-76
2022/12/24 02:00:21;;;;;;;29.30;19.10;;;7.40;99.90;;;;;;4988414;28;20456;-76
2022/12/24 02:02:50;;;;;;;29.02;18.52;;;7.50;99.90;;;;;;5005654;28;20518;-77
2022/12/24 02:05:21;;;;;;;29.08;19.95;;;7.20;99.90;;;;;;4980777;28;20491;-76
2022/12/24 02:07:48;;;;;;;33.35;20.95;;;7.50;99.90;;;;;;5005184;28;20447;-77
2022/12/24 02:10:15;;;;;;;29.40;19.67;;;7.10;99.90;;;;;;4973216;28;20820;-77
2022/12/24 02:12:42;;;;;;;28.58;19.55;;;7.10;99.90;;;;;;5007742;28;20418;-77
2022/12/24 02:15:11;;;;;;;33.53;20.92;;;7.30;99.90;;;;;;5008023;28;20424;-75
2022/12/24 02:17:56;;;;;;;28.50;19.60;;;7.20;99.90;;;;;;4986470;28;20449;-76
2022/12/24 02:20:40;;;;;;;30.40;20.63;;;7.50;99.90;;;;;;4989220;28;20436;-75
2022/12/24 02:23:41;;;;;;;30.80;20.95;;;7.50;99.90;;;;;;4986582;28;20781;-76
2022/12/24 02:26:30;;;;;;;27.23;20.08;;;7.60;99.90;;;;;;5006377;28;20487;-76
2022/12/24 02:29:21;;;;;;;26.73;19.23;;;7.60;99.90;;;;;;4992497;28;20523;-77
2022/12/24 02:32:02;;;;;;;27.15;18.58;;;7.70;99.90;;;;;;4984227;28;20471;-76
2022/12/24 02:34:49;;;;;;;24.40;18.98;;;7.60;99.90;;;;;;5002385;28;20556;-76
2022/12/24 02:37:21;;;;;;;23.50;18.02;;;7.50;99.90;;;;;;4988981;28;20448;-77
2022/12/24 02:40:09;;;;;;;21.92;16.73;;;7.50;99.90;;;;;;4991866;28;20783;-77
2022/12/24 02:42:48;;;;;;;21.42;17.45;;;7.60;99.90;;;;;;4980730;28;20517;-77
2022/12/24 02:45:19;;;;;;;26.70;17.83;;;7.90;99.90;;;;;;4976682;28;21022;-76
2022/12/24 02:47:46;;;;;;;25.27;18.02;;;7.90;99.90;;;;;;4993408;28;20486;-75
2022/12/24 02:50:14;;;;;;;25.55;16.20;;;7.80;99.90;;;;;;4991429;28;20516;-76
2022/12/24 02:52:43;;;;;;;23.60;15.70;;;8.00;99.90;;;;;;4999705;28;20495;-76
2022/12/24 02:55:22;;;;;;;17.63;14.10;;;7.80;99.90;;;;;;4983222;28;20959;-76
2022/12/24 02:58:27;;;;;;;24.73;15.90;;;8.00;99.90;;;;;;5014726;28;20420;-76
2022/12/24 03:01:30;;;;;;;21.83;14.32;;;8.00;99.90;;;;;;4978610;28;20494;-77
2022/12/24 03:04:40;;;;;;;21.95;14.10;;;7.90;99.90;;;;;;4973064;28;20429;-76
2022/12/24 03:07:21;;;;;;;20.60;13.50;;;7.80;99.90;;;;;;4947350;28;20520;-76
2022/12/24 03:10:10;;;;;;;28.73;14.52;;;8.20;99.90;;;;;;5003929;28;20508;-76
2022/12/24 03:12:41;;;;;;;23.48;13.32;;;7.80;99.90;;;;;;4991736;28;20443;-77
2022/12/24 03:15:10;;;;;;;27.90;13.52;;;7.80;99.90;;;;;;4994055;28;20426;-75
2022/12/24 03:17:38;;;;;;;25.90;12.80;;;8.00;99.90;;;;;;4980159;28;20977;-76
2022/12/24 03:20:07;;;;;;;31.90;12.43;;;8.10;99.90;;;;;;4991049;28;20436;-76
2022/12/24 03:22:34;;;;;;;30.00;11.33;;;7.70;99.90;;;;;;5008509;28;20517;-77
2022/12/24 03:25:00;;;;;;;30.10;10.93;;;7.90;99.90;;;;;;4988403;28;20429;-77
2022/12/24 03:27:29;;;;;;;32.42;9.85;;;8.20;99.90;;;;;;5009134;28;20441;-77
2022/12/24 03:29:56;;;;;;;35.90;9.55;;;8.20;99.90;;;;;;5009283;28;20508;-77
2022/12/24 03:32:30;;;;;;;32.33;7.53;;;8.20;99.90;;;;;;4989259;28;20518;-77
2022/12/24 03:34:56;;;;;;;37.53;8.90;;;8.30;99.90;;;;;;5004888;28;20512;-76
2022/12/24 03:37:22;;;;;;;40.67;7.63;;;7.80;99.90;;;;;;5028941;28;20466;-76
2022/12/24 03:39:48;;;;;;;36.88;7.72;;;8.10;99.90;;;;;;5029071;28;20422;-76
2022/12/24 03:42:13;;;;;;;29.92;7.03;;;8.20;99.90;;;;;;5028678;28;20423;-76
2022/12/24 03:44:39;;;;;;;38.70;7.03;;;8.30;99.90;;;;;;5028678;28;20958;-76
2022/12/24 03:47:04;;;;;;;36.25;7.70;;;8.30;99.90;;;;;;5030700;28;20434;-75
2022/12/24 03:49:30;;;;;;;35.50;6.07;;;8.10;99.90;;;;;;5017108;28;20423;-78
2022/12/24 03:51:56;;;;;;;47.63;8.73;;;8.40;99.90;;;;;;5026918;28;20435;-77
2022/12/24 03:54:21;;;;;;;34.57;7.50;;;8.40;99.90;;;;;;5027628;28;20454;-76
2022/12/24 03:56:47;;;;;;;40.33;7.00;;;8.10;99.90;;;;;;5025279;28;20423;-76
2022/12/24 03:59:13;;;;;;;36.83;6.83;;;8.10;99.90;;;;;;5027538;28;20415;-75
2022/12/24 04:01:39;;;;;;;39.67;9.30;;;8.20;99.90;;;;;;5026809;28;20431;-76
2022/12/24 04:04:05;;;;;;;42.53;7.87;;;8.20;99.90;;;;;;5027060;28;20449;-77
2022/12/24 04:06:30;;;;;;;39.00;7.00;;;8.00;99.90;;;;;;5026928;28;20512;-77
2022/12/24 04:08:58;;;;;;;42.83;8.60;;;7.90;99.90;;;;;;5025669;28;20815;-77
2022/12/24 04:11:23;;;;;;;44.88;7.07;;;8.20;99.90;;;;;;5021445;28;20431;-77
2022/12/24 04:13:49;;;;;;;40.13;8.30;;;8.10;99.90;;;;;;5023886;28;20461;-77
2022/12/24 04:16:16;;;;;;;36.03;7.83;;;8.10;99.90;;;;;;5027694;28;20477;-76
2022/12/24 04:18:42;;;;;;;39.92;9.07;;;8.00;99.90;;;;;;5015281;28;20774;-76
2022/12/24 04:21:08;;;;;;;33.22;7.15;;;7.60;99.90;;;;;;5020417;28;20423;-77
2022/12/24 04:23:36;;;;;;;46.65;8.68;;;8.10;99.90;;;;;;5022239;28;20769;-76
2022/12/24 04:26:04;;;;;;;35.33;7.22;;;7.50;99.90;;;;;;5026194;28;20419;-77
2022/12/24 04:28:31;;;;;;;36.50;7.88;;;7.60;99.90;;;;;;5024879;28;20440;-77
2022/12/24 04:31:06;;;;;;;42.87;8.07;;;7.70;99.90;;;;;;5025306;28;20488;-77
2022/12/24 04:33:34;;;;;;;42.97;8.25;;;7.80;99.90;;;;;;5013764;28;20854;-77
2022/12/24 04:36:02;;;;;;;43.45;8.73;;;8.00;99.90;;;;;;5012401;28;20894;-77
2022/12/24 04:38:29;;;;;;;40.03;7.78;;;7.90;99.90;;;;;;5024611;28;20789;-77
2022/12/24 04:41:01;;;;;;;39.13;7.80;;;8.00;99.90;;;;;;5022021;28;20426;-77
2022/12/24 04:43:28;;;;;;;38.28;7.15;;;8.10;99.90;;;;;;5010730;28;20427;-77
2022/12/24 04:45:53;;;;;;;51.80;10.15;;;8.10;99.90;;;;;;5022219;28;20996;-78
2022/12/24 04:48:19;;;;;;;42.87;7.93;;;8.00;99.90;;;;;;5022378;28;20439;-77
2022/12/24 04:50:45;;;;;;;43.17;8.10;;;8.00;99.90;;;;;;5021483;28;20427;-78
2022/12/24 04:53:13;;;;;;;47.40;9.47;;;7.90;99.90;;;;;;5023773;28;20423;-76
2022/12/24 04:55:45;;;;;;;38.28;8.43;;;7.90;99.90;;;;;;5012498;28;20418;-77
2022/12/24 04:58:11;;;;;;;38.03;8.15;;;8.00;99.90;;;;;;5020154;28;20447;-77
2022/12/24 05:00:37;;;;;;;46.45;7.57;;;8.00;99.90;;;;;;5017419;28;20510;-76
2022/12/24 05:03:03;;;;;;;51.53;9.07;;;7.80;99.90;;;;;;5017925;28;20510;-76
2022/12/24 05:05:28;;;;;;;39.20;8.03;;;7.80;99.90;;;;;;5013426;28;20768;-77
2022/12/24 05:07:54;;;;;;;43.65;8.98;;;7.90;99.90;;;;;;5009843;28;20431;-77
2022/12/24 05:10:20;;;;;;;41.67;8.20;;;7.90;99.90;;;;;;5027550;28;20457;-77
2022/12/24 05:12:46;;;;;;;39.50;7.22;;;8.00;99.90;;;;;;5023702;28;20456;-77
2022/12/24 05:15:12;;;;;;;47.57;10.33;;;7.80;99.90;;;;;;5025633;28;20465;-77
2022/12/24 05:17:37;;;;;;;52.40;8.90;;;8.00;99.90;;;;;;5019003;28;20856;-78
2022/12/24 05:20:03;;;;;;;44.67;9.33;;;8.10;99.90;;;;;;5021753;28;20936;-77
2022/12/24 05:27:58;;;;;;;47.25;8.88;;;7.90;99.90;;;;;;5025216;28;20457;-78
2022/12/24 05:30:23;;;;;;;47.43;8.80;;;7.90;99.90;;;;;;5018853;28;21082;-77
2022/12/24 05:32:49;;;;;;;51.00;10.60;;;7.90;99.90;;;;;;5020706;28;20778;-77
2022/12/24 05:35:15;;;;;;;52.33;9.63;;;8.10;99.90;;;;;;5020113;28;20442;-77
2022/12/24 05:37:40;;;;;;;48.97;8.57;;;8.30;99.90;;;;;;5015645;28;20446;-78
2022/12/24 05:40:06;;;;;;;47.03;8.20;;;8.20;99.90;;;;;;5024268;28;20489;-79
2022/12/24 05:42:32;;;;;;;66.47;10.60;;;7.90;99.90;;;;;;5025906;28;21069;-78
2022/12/24 05:44:58;;;;;;;46.40;7.68;;;8.20;99.90;;;;;;5018032;28;20427;-76
2022/12/24 05:47:23;;;;;;;54.10;10.00;;;8.00;99.90;;;;;;5016328;28;20802;-77
2022/12/24 05:49:49;;;;;;;54.67;10.00;;;8.00;99.90;;;;;;5025845;28;20842;-77
2022/12/24 05:52:15;;;;;;;44.77;8.63;;;8.00;99.90;;;;;;5014344;28;20769;-77
2022/12/24 05:54:40;;;;;;;59.03;9.97;;;8.20;99.90;;;;;;5015591;28;20429;-77
2022/12/24 05:57:07;;;;;;;48.87;7.77;;;8.10;99.90;;;;;;5014923;28;21034;-77
2022/12/24 05:59:32;;;;;;;36.97;7.45;;;7.90;99.90;;;;;;5025960;28;20975;-76
2022/12/24 06:01:58;;;;;;;50.60;8.90;;;7.90;99.90;;;;;;5022562;28;20502;-76
2022/12/24 06:04:23;;;;;;;45.88;8.70;;;8.30;99.90;;;;;;5021504;28;20477;-77
2022/12/24 06:06:49;;;;;;;46.33;9.18;;;8.20;99.90;;;;;;5025633;28;20427;-78
2022/12/24 06:09:16;;;;;;;44.67;8.15;;;8.10;99.90;;;;;;5024798;28;20439;-77
2022/12/24 06:11:41;;;;;;;49.38;8.95;;;8.00;99.90;;;;;;5007750;28;20890;-76
2022/12/24 06:14:08;;;;;;;44.63;8.93;;;8.00;99.90;;;;;;5026016;28;20454;-76
2022/12/24 06:16:33;;;;;;;52.20;7.88;;;8.20;99.90;;;;;;5025961;28;20477;-77
2022/12/24 06:18:59;;;;;;;36.72;7.03;;;8.20;99.90;;;;;;5024578;28;20466;-77
2022/12/24 06:21:24;;;;;;;45.47;9.20;;;8.20;99.90;;;;;;5016341;28;20460;-77
2022/12/24 06:23:51;;;;;;;46.37;9.37;;;8.10;99.90;;;;;;5006950;28;20408;-76
2022/12/24 06:26:19;;;;;;;42.10;8.13;;;8.30;99.90;;;;;;5020574;28;20427;-75
2022/12/24 06:28:45;;;;;;;47.67;9.50;;;8.30;99.90;;;;;;5024301;28;20928;-76
2022/12/24 06:31:13;;;;;;;51.93;10.07;;;8.10;99.90;;;;;;5024363;28;20494;-77
2022/12/24 06:33:39;;;;;;;41.72;8.07;;;8.30;99.90;;;;;;5021145;28;20472;-75
2022/12/24 06:36:07;;;;;;;39.65;8.32;;;8.10;99.90;;;;;;5023887;28;20465;-76
2022/12/24 06:38:32;;;;;;;43.22;8.25;;;8.30;99.90;;;;;;5023785;28;20438;-76
2022/12/24 06:40:58;;;;;;;47.47;7.07;;;8.40;99.90;;;;;;5024566;28;20429;-75
2022/12/24 06:43:24;;;;;;;47.67;9.05;;;8.10;99.90;;;;;;5026117;28;20467;-75
2022/12/24 06:45:50;;;;;;;47.35;7.50;;;8.40;99.90;;;;;;5008147;28;20780;-76
2022/12/24 06:48:15;;;;;;;48.30;6.83;;;8.10;99.90;;;;;;5023673;28;20441;-76
2022/12/24 06:50:42;;;;;;;45.00;7.80;;;8.20;99.90;;;;;;5026223;28;20438;-76
2022/12/24 06:53:07;;;;;;;46.47;8.48;;;8.20;99.90;;;;;;5025562;28;20431;-77
2022/12/24 06:55:33;;;;;;;43.60;8.73;;;8.10;99.90;;;;;;5025507;28;20429;-76
2022/12/24 06:57:59;;;;;;;46.10;9.18;;;8.30;99.90;;;;;;5029025;28;20435;-76
2022/12/24 07:00:25;;;;;;;43.17;8.97;;;8.10;99.90;;;;;;5029194;28;20422;-77
2022/12/24 07:02:51;;;;;;;35.50;6.93;;;8.20;99.90;;;;;;5028471;28;20427;-76
2022/12/24 07:05:16;;;;;;;41.38;8.07;;;8.40;99.90;;;;;;5020216;28;20427;-76
2022/12/24 07:07:43;;;;;;;38.72;8.35;;;8.20;99.90;;;;;;5017441;28;20438;-76
2022/12/24 07:10:15;;;;;;;40.03;9.05;;;8.50;99.90;;;;;;5022998;28;20489;-76
2022/12/24 07:12:41;;;;;;;42.97;8.80;;;8.20;99.90;;;;;;5022474;28;20443;-76
2022/12/24 07:15:08;;;;;;;47.30;8.27;;;8.50;99.90;;;;;;5027335;28;20467;-75
2022/12/24 07:17:34;;;;;;;39.88;8.73;;;8.50;99.90;;;;;;5009399;28;20471;-75
2022/12/24 07:19:59;;;;;;;39.07;7.60;;;8.50;99.90;;;;;;5025476;28;20446;-75
2022/12/24 07:22:25;;;;;;;40.93;6.40;;;8.40;99.90;;;;;;5015958;28;20432;-76
2022/12/24 07:24:50;;;;;;;38.87;7.90;;;8.40;99.90;;;;;;5009731;28;20838;-75
2022/12/24 07:27:16;;;;;;;39.90;8.20;;;8.10;99.90;;;;;;5018996;28;20432;-75
2022/12/24 07:29:42;;;;;;;36.08;6.72;;;8.00;99.90;;;;;;5024196;28;20423;-75
2022/12/24 07:32:08;;;;;;;46.08;9.25;;;8.10;99.90;;;;;;5020230;28;20436;-75
2022/12/24 07:34:34;;;;;;;42.80;9.65;;;7.80;99.90;;;;;;5005092;28;20947;-74
2022/12/24 07:36:59;;;;;;;43.40;9.63;;;7.90;99.90;;;;;;5009313;28;20401;-75
2022/12/24 07:39:25;;;;;;;48.47;10.10;;;7.80;99.90;;;;;;5008730;28;20445;-75
2022/12/24 07:41:51;;;;;;;42.60;7.33;;;7.70;99.90;;;;;;4991998;28;20413;-76
2022/12/24 07:44:16;;;;;;;46.90;7.87;;;7.60;99.90;;;;;;4989320;28;20424;-75
2022/12/24 07:46:43;;;;;;;44.33;9.23;;;8.00;99.90;;;;;;5005843;28;20444;-75
2022/12/24 07:49:09;;;;;;;46.20;8.73;;;8.00;99.90;;;;;;5007524;28;20444;-76
2022/12/24 07:51:35;;;;;;;52.15;8.60;;;7.90;99.90;;;;;;5008466;28;20405;-75
2022/12/24 07:54:01;;;;;;;54.28;9.48;;;7.60;99.90;;;;;;4995734;28;20445;-75
2022/12/24 07:56:27;;;;;;;47.70;9.18;;;7.80;99.90;;;;;;5005792;28;20468;-75
2022/12/24 07:58:52;;;;;;;57.20;12.23;;;7.50;99.90;;;;;;4989785;28;20418;-74
2022/12/24 08:01:18;;;;;;;47.22;7.78;;;7.70;99.90;;;;;;5001430;28;20413;-76
2022/12/24 08:03:44;;;;;;;47.35;7.88;;;7.50;99.90;;;;;;5007146;28;20436;-76
2022/12/24 08:06:10;;;;;;;48.75;9.13;;;7.50;99.90;;;;;;5008727;28;20433;-76
2022/12/24 08:08:36;;;;;;;43.77;8.47;;;7.50;99.90;;;;;;5004815;28;20506;-76
2022/12/24 08:11:04;;;;;;;45.05;8.90;;;7.50;99.90;;;;;;5008542;28;20412;-76
2022/12/24 08:13:31;;;;;;;49.60;9.27;;;7.70;99.90;;;;;;5008277;28;20425;-77
2022/12/24 08:15:57;;;;;;;45.97;7.82;;;7.80;99.90;;;;;;5007859;28;20429;-79
2022/12/24 08:18:23;;;;;;;43.75;9.07;;;7.90;99.90;;;;;;5007476;28;20440;-78
2022/12/24 08:20:48;;;;;;;49.50;9.07;;;7.70;99.90;;;;;;5008326;28;20424;-77
2022/12/24 08:23:14;;;;;;;54.40;11.07;;;8.00;99.90;;;;;;5008356;28;20444;-77
2022/12/24 08:25:45;;;;;;;42.95;8.68;;;8.00;99.90;;;;;;4990591;28;20779;-78
2022/12/24 08:28:12;;;;;;;50.60;8.80;;;8.00;99.90;;;;;;4990818;28;20854;-78
2022/12/24 08:30:38;;;;;;;43.67;9.15;;;7.80;99.90;;;;;;4990361;28;20483;-77
2022/12/24 08:33:04;;;;;;;47.10;9.68;;;7.90;99.90;;;;;;4997702;28;20414;-77
2022/12/24 08:35:29;;;;;;;52.43;9.67;;;7.90;99.90;;;;;;4988723;28;20828;-76
2022/12/24 08:37:55;;;;;;;35.37;7.83;;;7.90;99.90;;;;;;4989675;28;20851;-78
2022/12/24 08:40:21;;;;;;;43.23;7.73;;;8.00;99.90;;;;;;4991431;28;20483;-77
2022/12/24 08:42:46;;;;;;;45.60;9.07;;;8.20;99.90;;;;;;5008190;28;20467;-78
2022/12/24 08:45:12;;;;;;;45.97;9.07;;;8.00;99.90;;;;;;4990143;28;20448;-77
2022/12/24 08:47:39;;;;;;;40.17;8.13;;;8.20;99.90;;;;;;5007170;28;20518;-77
2022/12/24 08:50:05;;;;;;;39.40;8.68;;;8.10;99.90;;;;;;4994460;28;20422;-76
2022/12/24 08:52:31;;;;;;;30.40;7.82;;;8.20;99.90;;;;;;4990453;28;20434;-79
2022/12/24 08:54:57;;;;;;;41.08;8.75;;;8.20;99.90;;;;;;5005146;28;20458;-78
2022/12/24 08:57:22;;;;;;;43.45;8.90;;;8.10;99.90;;;;;;5008417;28;21042;-77
2022/12/24 08:59:48;;;;;;;44.83;9.60;;;8.10;99.90;;;;;;5003622;28;20435;-77
2022/12/24 09:02:14;;;;;;;32.65;6.75;;;8.30;99.90;;;;;;5008050;28;20508;-78
2022/12/24 09:04:39;;;;;;;37.05;8.05;;;8.20;99.90;;;;;;5007052;28;20552;-77
2022/12/24 09:07:06;;;;;;;45.42;9.10;;;8.30;99.90;;;;;;5007818;28;20578;-77
2022/12/24 09:09:32;;;;;;;46.20;8.95;;;8.40;99.90;;;;;;5007547;28;20409;-77
2022/12/24 09:11:57;;;;;;;40.90;7.40;;;8.60;99.90;;;;;;4994958;28;20774;-76
2022/12/24 09:14:23;;;;;;;37.97;7.17;;;8.50;99.90;;;;;;5008629;28;20787;-76
2022/12/24 09:16:49;;;;;;;36.63;6.80;;;8.50;99.90;;;;;;5008050;28;20417;-78
2022/12/24 09:19:14;;;;;;;34.20;7.67;;;8.60;99.90;;;;;;4992218;28;20435;-79
2022/12/24 09:21:40;;;;;;;42.83;7.93;;;8.50;99.90;;;;;;4990618;28;20411;-76
2022/12/24 09:24:06;;;;;;;40.43;7.53;;;8.60;99.90;;;;;;4975234;28;20501;-79
2022/12/24 09:26:31;;;;;;;39.30;8.93;;;8.60;99.90;;;;;;4973225;28;20408;-81
2022/12/24 09:28:59;;;;;;;37.07;8.10;;;8.80;99.90;;;;;;5009452;28;20447;-81
2022/12/24 09:31:25;;;;;;;40.13;9.45;;;8.70;99.90;;;;;;5008101;28;20439;-82
2022/12/24 09:33:51;;;;;;;43.13;8.77;;;8.70;99.90;;;;;;5007462;28;20437;-81
2022/12/24 09:40:05;;;;;;;37.03;7.75;;;8.80;99.90;;;;;;4527904;23;20561;-82
2022/12/24 09:42:46;;;;;;;47.53;9.00;;;8.80;99.90;;;;;;5010590;28;20919;-81
2022/12/24 09:45:38;;;;;;;43.00;8.43;;;8.80;99.90;;;;;;5026035;28;20529;-81
2022/12/24 09:48:12;;;;;;;46.45;9.30;;;9.00;99.90;;;;;;5008246;28;20429;-78
2022/12/24 09:50:43;;;;;;;42.60;8.73;;;9.00;99.90;;;;;;5007423;28;20913;-80
2022/12/24 09:53:39;;;;;;;39.40;9.48;;;9.10;99.90;;;;;;5026686;28;20473;-82
2022/12/24 09:56:24;;;;;;;42.33;8.37;;;9.20;99.90;;;;;;5026272;28;20496;-80
2022/12/24 09:58:58;;;;;;;41.63;9.05;;;9.10;99.90;;;;;;5027973;28;20407;-79
2022/12/24 10:01:24;;;;;;;41.47;9.75;;;9.20;99.90;;;;;;5027899;28;20936;-80
2022/12/24 10:03:50;;;;;;;39.10;8.97;;;9.10;99.90;;;;;;5028257;28;20534;-79
2022/12/24 10:06:23;;;;;;;43.30;8.70;;;9.10;99.90;;;;;;5010761;28;20447;-80
2022/12/24 10:09:07;;;;;;;33.63;7.30;;;9.20;99.90;;;;;;5009758;28;20925;-81
2022/12/24 10:12:03;;;;;;;34.28;6.97;;;9.20;99.90;;;;;;5027714;28;20409;-80
2022/12/24 10:14:37;;;;;;;40.95;7.60;;;9.20;99.90;;;;;;5027799;28;20435;-78
2022/12/24 10:17:15;;;;;;;40.35;9.15;;;9.20;99.90;;;;;;5025046;28;22812;-78
2022/12/24 10:20:10;;;;;;;38.45;6.28;;;9.20;99.90;;;;;;5007673;28;20409;-80
2022/12/24 10:22:58;;;;;;;33.38;6.78;;;9.10;99.90;;;;;;5017940;28;20419;-80
2022/12/24 10:25:36;;;;;;;36.40;8.30;;;9.30;99.90;;;;;;5006034;28;20591;-80
2022/12/24 10:28:11;;;;;;;34.55;7.50;;;9.30;99.90;;;;;;5020975;28;20859;-80
2022/12/24 10:30:37;;;;;;;28.52;6.63;;;9.60;99.90;;;;;;5026235;28;20769;-81
2022/12/24 10:33:17;;;;;;;32.33;7.13;;;9.40;99.90;;;;;;5012142;28;20417;-76
2022/12/24 10:35:47;;;;;;;34.77;7.37;;;9.50;99.90;;;;;;5015606;28;20422;-80
2022/12/24 10:38:13;;;;;;;40.13;7.57;;;9.50;99.90;;;;;;5030040;28;20494;-80
2022/12/24 10:40:45;;;;;;;35.22;8.52;;;9.60;99.90;;;;;;5028533;28;20963;-81
2022/12/24 10:43:19;;;;;;;29.83;7.57;;;9.50;99.90;;;;;;5029667;28;20735;-82
2022/12/24 10:45:49;;;;;;;35.97;7.75;;;9.70;99.90;;;;;;4997315;28;20473;-80
2022/12/24 10:48:39;;;;;;;39.50;7.82;;;9.60;99.90;;;;;;5029597;28;20430;-81
2022/12/24 10:51:13;;;;;;;30.35;6.50;;;9.70;99.90;;;;;;5017065;28;20406;-80
2022/12/24 10:53:43;;;;;;;29.25;7.10;;;9.50;99.90;;;;;;5028418;28;20406;-78
2022/12/24 10:56:14;;;;;;;30.63;7.63;;;9.60;99.90;;;;;;5030292;28;20431;-81
2022/12/24 10:58:52;;;;;;;42.53;8.10;;;9.50;99.90;;;;;;5026277;28;20462;-78
2022/12/24 11:01:19;;;;;;;30.70;6.18;;;9.60;99.90;;;;;;5012174;28;20404;-81
2022/12/24 11:03:58;;;;;;;34.15;6.88;;;9.50;99.90;;;;;;5029580;28;20411;-81
2022/12/24 11:06:23;;;;;;;33.55;7.43;;;9.60;99.90;;;;;;5028958;28;20422;-80
2022/12/24 11:08:49;;;;;;;31.88;6.95;;;9.50;99.90;;;;;;5028358;28;20506;-79
2022/12/24 11:11:19;;;;;;;39.92;7.97;;;9.50;99.90;;;;;;5012641;28;20419;-80
2022/12/24 11:13:50;;;;;;;28.83;6.80;;;9.60;99.90;;;;;;5029336;28;20418;-79
2022/12/24 11:16:21;;;;;;;33.78;7.90;;;9.60;99.90;;;;;;5029656;28;20407;-78
2022/12/24 11:18:49;;;;;;;34.60;8.07;;;9.40;99.90;;;;;;5029829;28;20415;-79
2022/12/24 11:21:28;;;;;;;33.05;7.05;;;9.50;99.90;;;;;;5028662;28;20509;-80
2022/12/24 11:24:16;;;;;;;29.63;6.30;;;9.50;99.90;;;;;;5011904;28;20429;-80
2022/12/24 11:26:43;;;;;;;30.30;6.63;;;9.40;99.90;;;;;;5028883;28;20773;-80
2022/12/24 11:29:18;;;;;;;36.70;7.63;;;9.50;99.90;;;;;;5029357;28;20438;-78
2022/12/24 11:31:45;;;;;;;29.17;5.83;;;9.40;99.90;;;;;;5030284;28;20451;-78
2022/12/24 11:34:17;;;;;;;37.33;7.30;;;9.40;99.90;;;;;;5010459;28;20721;-78
2022/12/24 11:36:43;;;;;;;31.17;7.90;;;9.50;99.90;;;;;;5029546;28;20473;-76
2022/12/24 11:39:21;;;;;;;30.45;5.72;;;9.50;99.90;;;;;;5024085;28;20425;-80
2022/12/24 11:41:51;;;;;;;29.13;6.50;;;9.40;99.90;;;;;;5014491;28;20908;-80
2022/12/24 11:44:26;;;;;;;30.48;5.97;;;9.50;99.90;;;;;;5029630;28;20407;-78
2022/12/24 11:46:55;;;;;;;35.95;5.70;;;9.50;99.90;;;;;;5029794;28;20425;-79
2022/12/24 11:49:30;;;;;;;28.40;6.38;;;9.30;99.90;;;;;;5028359;28;20431;-79
2022/12/24 11:52:12;;;;;;;33.47;6.50;;;9.50;99.90;;;;;;5027905;28;20409;-78
2022/12/24 11:55:07;;;;;;;32.17;6.10;;;9.40;99.90;;;;;;5003387;28;20491;-80
2022/12/24 11:58:00;;;;;;;34.45;6.53;;;9.60;99.90;;;;;;4990520;28;20421;-81
2022/12/24 12:00:27;;;;;;;36.50;7.63;;;9.50;99.90;;;;;;4989877;28;20428;-79
2022/12/24 12:02:57;;;;;;;34.92;6.72;;;9.60;99.90;;;;;;5016054;28;20484;-81
2022/12/24 12:05:31;;;;;;;29.33;6.32;;;9.50;99.90;;;;;;5026971;28;20508;-79
2022/12/24 12:08:19;;;;;;;27.55;5.03;;;9.50;99.90;;;;;;5027732;28;20446;-81
2022/12/24 12:10:47;;;;;;;31.75;5.40;;;9.50;99.90;;;;;;5027502;28;20456;-78
2022/12/24 12:13:16;;;;;;;29.23;6.20;;;9.60;99.90;;;;;;5014676;28;20558;-79
2022/12/24 12:15:48;;;;;;;25.88;8.02;;;9.40;99.90;;;;;;5021726;28;20727;-79
2022/12/24 12:18:46;;;;;;;31.35;7.30;;;9.60;99.90;;;;;;5028501;28;20495;-79
2022/12/24 12:21:18;;;;;;;27.92;6.10;;;9.50;99.90;;;;;;4997972;28;20441;-79
2022/12/24 12:23:50;;;;;;;26.33;5.68;;;9.60;99.90;;;;;;5007994;28;20763;-79
2022/12/24 12:26:19;;;;;;;28.37;8.30;;;9.60;99.90;;;;;;5026139;28;20430;-78
2022/12/24 12:29:09;;;;;;;32.10;7.00;;;9.60;99.90;;;;;;5027813;28;20441;-77
2022/12/24 12:31:46;;;;;;;32.15;6.28;;;9.80;99.90;;;;;;5027990;28;20418;-79
2022/12/24 12:34:25;;;;;;;27.52;5.68;;;9.70;99.90;;;;;;5010422;28;20419;-79
2022/12/24 12:37:14;;;;;;;30.77;7.13;;;9.60;99.90;;;;;;5010561;28;20419;-77
2022/12/24 12:39:40;;;;;;;28.42;6.13;;;9.70;99.90;;;;;;5007421;28;20433;-78
2022/12/24 12:42:32;;;;;;;28.77;5.87;;;9.70;99.90;;;;;;5008107;28;20422;-79
2022/12/24 12:45:13;;;;;;;27.33;5.45;;;9.60;99.90;;;;;;5014636;28;20407;-78
2022/12/24 12:48:33;;;;;;;25.65;5.80;;;9.70;99.90;;;;;;5027561;28;20435;-79
2022/12/24 12:51:14;;;;;;;27.73;6.22;;;9.50;99.90;;;;;;4928215;29;20427;-78
2022/12/24 12:53:48;;;;;;;25.23;5.45;;;9.60;99.90;;;;;;4980762;28;20915;-78
2022/12/24 12:56:29;;;;;;;23.45;6.07;;;9.60;99.90;;;;;;5008681;28;20417;-82
2022/12/24 12:59:01;;;;;;;24.08;5.10;;;9.50;99.90;;;;;;5020012;28;20952;-80
2022/12/24 13:01:40;;;;;;;28.00;6.65;;;9.50;99.90;;;;;;5028226;28;20492;-71
2022/12/24 13:04:24;;;;;;;24.05;4.70;;;9.50;99.90;;;;;;5019684;28;20461;-74
2022/12/24 13:06:49;;;;;;;23.50;5.80;;;9.50;99.90;;;;;;5026408;28;20935;-75
2022/12/24 13:09:53;;;;;;;28.85;5.97;;;9.50;99.90;;;;;;5026305;28;20498;-78
2022/12/24 13:12:46;;;;;;;29.48;5.35;;;9.40;99.90;;;;;;5027106;28;20450;-76
2022/12/24 13:15:56;;;;;;;33.60;6.65;;;9.20;99.90;;;;;;5009279;28;20475;-76